Time;durP1;ratioP1;P1;durP2;ratioP2;P2;SDS_P1;SDS_P2;PMS_P1;PMS_P2;Temp;Humidity;BMP_temperature;BMP_pressure;BME280_temperature;BME280_humidity;BME280_pressure;Samples;Min_cycle;Max_cycle;Signal;HPM_P1;HPM_P2
2023/08/29 00:00:13;;;;;;;9.95;4.07;;;;;;;25.70;47.52;94500.09;5019334;28;20617;-75
2023/08/29 00:02:41;;;;;;;5.68;3.88;;;;;;;25.71;48.00;94499.00;5046571;28;20678;-75
2023/08/29 00:05:07;;;;;;;10.63;4.50;;;;;;;25.76;47.36;94506.16;5045952;28;20225;-74
2023/08/29 00:07:33;;;;;;;7.15;4.13;;;;;;;25.74;47.48;94485.00;5023977;28;20240;-74
2023/08/29 00:09:58;;;;;;;5.70;4.13;;;;;;;25.68;48.10;94488.09;5033986;28;20221;-75
2023/08/29 00:12:24;;;;;;;9.18;3.88;;;;;;;25.68;47.97;94494.25;5021795;28;20232;-74
2023/08/29 00:14:49;;;;;;;6.45;3.83;;;;;;;25.68;48.05;94490.78;5027956;28;20653;-74
2023/08/29 00:17:16;;;;;;;5.60;4.10;;;;;;;25.79;47.67;94486.78;5009225;28;20230;-73
2023/08/29 00:19:42;;;;;;;6.63;4.05;;;;;;;25.84;47.59;94484.75;5015533;28;20229;-74
2023/08/29 00:22:07;;;;;;;11.13;4.15;;;;;;;25.63;47.84;94493.56;5025836;28;20240;-74
2023/08/29 00:24:33;;;;;;;6.65;4.20;;;;;;;25.63;48.04;94485.53;5019696;28;20291;-73
2023/08/29 00:26:58;;;;;;;6.85;3.95;;;;;;;25.58;47.96;94483.75;5022324;28;20217;-74
2023/08/29 00:29:24;;;;;;;7.85;4.13;;;;;;;25.51;48.36;94487.97;5035971;28;20251;-75
2023/08/29 00:31:49;;;;;;;6.00;3.97;;;;;;;25.64;48.07;94484.44;5004973;28;20372;-74
2023/08/29 00:34:15;;;;;;;7.78;4.07;;;;;;;25.53;48.20;94475.06;5048598;28;20228;-73
2023/08/29 00:36:40;;;;;;;9.48;3.90;;;;;;;25.51;48.46;94474.56;5029820;28;20229;-73
2023/08/29 00:39:06;;;;;;;5.72;3.92;;;;;;;25.51;48.43;94477.25;5041903;28;20228;-74
2023/08/29 00:41:31;;;;;;;8.43;4.22;;;;;;;25.56;48.30;94477.13;5028471;28;20224;-73
2023/08/29 00:43:57;;;;;;;5.13;3.88;;;;;;;25.59;48.16;94477.31;5027178;28;20280;-73
2023/08/29 00:46:22;;;;;;;8.15;4.18;;;;;;;25.49;48.73;94474.06;5036819;28;20228;-73
2023/08/29 00:48:49;;;;;;;6.75;4.00;;;;;;;25.41;48.69;94472.88;5015496;28;20228;-74
2023/08/29 00:51:14;;;;;;;7.57;4.18;;;;;;;25.46;48.80;94478.13;5006756;28;20859;-72
2023/08/29 00:53:40;;;;;;;6.38;4.10;;;;;;;25.48;48.54;94478.66;5038720;28;20765;-74
2023/08/29 00:56:05;;;;;;;7.88;4.40;;;;;;;25.36;48.95;94478.34;5047138;28;20374;-73
2023/08/29 00:58:31;;;;;;;7.78;4.00;;;;;;;25.41;48.96;94480.94;5041856;28;20230;-73
2023/08/29 01:00:57;;;;;;;8.23;4.15;;;;;;;25.33;49.08;94485.13;5004406;28;20253;-74
2023/08/29 01:03:22;;;;;;;6.88;4.22;;;;;;;25.29;49.21;94478.75;5029996;28;20263;-74
2023/08/29 01:05:48;;;;;;;6.90;4.18;;;;;;;25.29;49.46;94468.03;5011675;28;20234;-74
2023/08/29 01:08:13;;;;;;;7.88;4.00;;;;;;;25.32;49.10;94470.13;5022430;28;20248;-74
2023/08/29 01:10:51;;;;;;;6.82;4.20;;;;;;;25.25;49.35;94466.25;5048721;28;20229;-72
2023/08/29 01:13:45;;;;;;;7.05;4.40;;;;;;;25.19;49.59;94468.28;5015469;28;20224;-73
2023/08/29 01:16:11;;;;;;;6.50;4.00;;;;;;;25.18;49.92;94466.69;5029794;28;20269;-73
2023/08/29 01:18:39;;;;;;;6.03;4.07;;;;;;;25.20;49.91;94463.69;5024485;28;20236;-73
2023/08/29 01:21:30;;;;;;;6.80;4.07;;;;;;;25.16;50.05;94457.38;5017587;28;20225;-73
2023/08/29 01:24:06;;;;;;;6.53;4.30;;;;;;;25.04;50.09;94447.19;5048445;28;20229;-72
2023/08/29 01:26:31;;;;;;;7.22;4.22;;;;;;;24.98;50.18;94436.88;5027362;28;20235;-73
2023/08/29 01:28:57;;;;;;;6.50;4.22;;;;;;;25.09;50.64;94433.69;5039651;28;20238;-73
2023/08/29 01:31:22;;;;;;;9.27;4.28;;;;;;;25.06;50.60;94431.59;5044243;28;20225;-73
2023/08/29 01:33:48;;;;;;;5.70;4.20;;;;;;;24.99;50.50;94436.56;5001427;28;20314;-73
2023/08/29 01:36:13;;;;;;;8.82;4.13;;;;;;;24.94;50.66;94422.47;5013251;28;20228;-73
2023/08/29 01:38:39;;;;;;;8.10;4.43;;;;;;;24.97;50.46;94421.88;5050377;28;21035;-73
2023/08/29 01:41:04;;;;;;;8.65;4.30;;;;;;;24.94;50.75;94422.47;5052023;28;20225;-73
2023/08/29 01:43:30;;;;;;;6.40;3.90;;;;;;;24.88;51.03;94419.16;5026175;28;20232;-73
2023/08/29 01:45:55;;;;;;;7.20;4.10;;;;;;;24.89;51.30;94422.59;5003910;28;20364;-73
2023/08/29 01:48:21;;;;;;;7.72;4.25;;;;;;;24.77;51.73;94422.34;5022938;28;20257;-73
2023/08/29 01:50:47;;;;;;;6.75;4.00;;;;;;;24.89;51.30;94417.22;5050276;28;20226;-75
2023/08/29 01:53:13;;;;;;;8.70;4.38;;;;;;;24.72;51.70;94415.94;5044211;28;20224;-73
2023/08/29 01:55:38;;;;;;;6.13;4.20;;;;;;;24.68;51.74;94427.56;5036998;28;20777;-74
2023/08/29 01:58:04;;;;;;;10.80;4.60;;;;;;;24.67;51.81;94423.31;5050589;28;20828;-74
2023/08/29 02:00:30;;;;;;;6.60;4.38;;;;;;;24.73;51.62;94424.78;5049676;28;20219;-74
2023/08/29 02:02:56;;;;;;;7.53;4.20;;;;;;;24.68;52.35;94424.88;5022607;28;20317;-74
2023/08/29 02:05:21;;;;;;;9.32;4.40;;;;;;;24.53;52.08;94433.22;5031436;28;20255;-73
2023/08/29 02:07:48;;;;;;;8.90;4.20;;;;;;;24.72;51.97;94429.34;5018000;28;20321;-74
2023/08/29 02:10:13;;;;;;;8.20;4.03;;;;;;;24.70;51.49;94428.03;5034603;28;20787;-73
2023/08/29 02:12:40;;;;;;;7.07;4.30;;;;;;;24.70;51.58;94430.72;5045397;28;20226;-74
2023/08/29 02:15:06;;;;;;;6.75;4.18;;;;;;;24.77;51.72;94427.69;5045370;28;20225;-74
2023/08/29 02:17:33;;;;;;;7.38;3.97;;;;;;;24.74;51.62;94423.69;5024761;28;20268;-74
2023/08/29 02:19:58;;;;;;;6.38;4.30;;;;;;;24.64;52.05;94429.25;5025725;28;20317;-74
2023/08/29 02:22:24;;;;;;;7.18;4.28;;;;;;;24.66;51.97;94432.41;5049580;28;20637;-74
2023/08/29 02:24:49;;;;;;;9.13;4.53;;;;;;;24.55;52.21;94436.41;5015550;28;20271;-74
2023/08/29 02:27:15;;;;;;;6.15;4.35;;;;;;;24.51;52.66;94443.41;5033515;28;20237;-73
2023/08/29 02:29:40;;;;;;;8.43;4.50;;;;;;;24.50;52.55;94439.97;5048885;28;20237;-74
2023/08/29 02:32:05;;;;;;;6.28;4.20;;;;;;;24.44;53.14;94426.97;5023645;28;20268;-74
2023/08/29 02:34:31;;;;;;;8.20;4.30;;;;;;;24.45;52.87;94423.22;5027821;28;20735;-74
2023/08/29 02:36:56;;;;;;;7.88;4.20;;;;;;;24.52;52.43;94426.28;5032211;28;20221;-73
2023/08/29 02:39:22;;;;;;;7.22;4.38;;;;;;;24.52;52.75;94418.25;5036186;28;20330;-73
2023/08/29 02:41:48;;;;;;;8.98;4.43;;;;;;;24.60;52.48;94423.69;5036761;28;20225;-73
2023/08/29 02:44:14;;;;;;;6.75;4.30;;;;;;;24.51;52.63;94424.69;5021603;28;20303;-74
2023/08/29 02:46:39;;;;;;;8.52;4.55;;;;;;;24.51;52.67;94413.97;5031298;28;20904;-74
2023/08/29 02:49:04;;;;;;;8.63;4.43;;;;;;;24.40;52.72;94415.28;5013530;28;20305;-74
2023/08/29 02:51:30;;;;;;;8.02;4.28;;;;;;;24.35;52.97;94420.72;5036027;28;20222;-74
2023/08/29 02:53:55;;;;;;;10.60;4.80;;;;;;;24.26;53.45;94414.50;5040757;28;20236;-74
2023/08/29 02:56:21;;;;;;;6.30;4.25;;;;;;;24.37;53.08;94424.69;5052181;28;20244;-73
2023/08/29 02:58:46;;;;;;;7.32;4.38;;;;;;;24.34;53.08;94427.16;5017050;28;20343;-74
2023/08/29 03:01:12;;;;;;;9.80;4.50;;;;;;;24.20;53.52;94421.81;5029972;28;20838;-74
2023/08/29 03:03:38;;;;;;;8.63;4.30;;;;;;;24.15;54.05;94416.56;5028892;28;20595;-74
2023/08/29 03:06:03;;;;;;;5.68;4.13;;;;;;;24.16;54.04;94422.72;5021780;28;20648;-74
2023/08/29 03:08:30;;;;;;;8.48;4.47;;;;;;;24.29;53.80;94430.72;5020007;28;20261;-74
2023/08/29 03:10:56;;;;;;;9.35;4.80;;;;;;;24.17;53.91;94426.97;5020214;28;21012;-74
2023/08/29 03:13:22;;;;;;;11.35;4.43;;;;;;;24.17;53.86;94430.41;5021256;28;20251;-74
2023/08/29 03:15:48;;;;;;;8.35;4.45;;;;;;;24.15;53.84;94421.91;5013864;28;20226;-73
2023/08/29 03:18:16;;;;;;;8.25;4.32;;;;;;;24.14;54.35;94419.53;5005173;28;20766;-74
2023/08/29 03:20:42;;;;;;;9.48;4.60;;;;;;;24.15;54.13;94421.09;5011016;28;20246;-73
2023/08/29 03:23:08;;;;;;;10.35;4.60;;;;;;;24.09;54.29;94418.56;5031808;28;20240;-74
2023/08/29 03:25:33;;;;;;;8.43;4.57;;;;;;;24.14;54.29;94420.34;5020829;28;20327;-75
2023/08/29 03:27:59;;;;;;;10.27;4.32;;;;;;;24.11;54.23;94415.56;5028821;28;20817;-73
2023/08/29 03:30:25;;;;;;;6.97;4.68;;;;;;;24.12;54.23;94419.03;5037246;28;20721;-73
2023/08/29 03:32:51;;;;;;;7.70;4.47;;;;;;;24.09;54.33;94413.19;5022107;28;20234;-74
2023/08/29 03:35:17;;;;;;;6.90;4.20;;;;;;;24.07;54.46;94418.03;5047491;28;20226;-73
2023/08/29 03:37:43;;;;;;;6.78;4.45;;;;;;;24.00;54.42;94424.84;5029996;28;20779;-74
2023/08/29 03:40:10;;;;;;;7.45;4.47;;;;;;;24.01;54.53;94416.53;5047369;28;20233;-74
2023/08/29 03:42:35;;;;;;;7.57;4.43;;;;;;;24.07;54.23;94409.25;5027027;28;20241;-73
2023/08/29 03:45:01;;;;;;;8.60;4.10;;;;;;;24.04;54.34;94413.25;5012395;28;20274;-74
2023/08/29 03:47:27;;;;;;;9.40;4.55;;;;;;;24.00;54.86;94404.22;5034954;28;20232;-73
2023/08/29 03:49:53;;;;;;;10.25;4.78;;;;;;;24.09;54.24;94405.19;5030138;28;20766;-74
2023/08/29 03:52:22;;;;;;;9.43;4.40;;;;;;;24.09;54.09;94401.72;5012563;28;20218;-74
2023/08/29 03:54:48;;;;;;;10.15;4.72;;;;;;;24.16;54.26;94406.66;5034673;28;20316;-74
2023/08/29 03:57:13;;;;;;;10.57;4.80;;;;;;;24.14;54.53;94398.13;5017227;28;20330;-73
2023/08/29 03:59:39;;;;;;;8.13;4.55;;;;;;;24.13;54.45;94401.88;5016735;28;20230;-74
2023/08/29 04:02:06;;;;;;;6.18;4.63;;;;;;;24.07;54.80;94403.88;5050221;28;20224;-74
2023/08/29 04:04:32;;;;;;;7.57;4.78;;;;;;;23.95;54.77;94398.97;5014275;28;20225;-75
2023/08/29 04:06:59;;;;;;;8.32;4.47;;;;;;;24.05;54.67;94400.66;5048866;28;20229;-75
2023/08/29 04:09:24;;;;;;;8.23;4.50;;;;;;;24.09;54.60;94394.47;5031131;28;20232;-75
2023/08/29 04:11:50;;;;;;;10.30;4.80;;;;;;;24.07;54.63;94393.19;5026569;28;20232;-75
2023/08/29 04:14:15;;;;;;;10.57;5.00;;;;;;;24.07;54.61;94395.88;5028980;28;20225;-75
2023/08/29 04:16:41;;;;;;;9.18;5.10;;;;;;;23.97;55.33;94407.50;5024341;28;20230;-74
2023/08/29 04:19:07;;;;;;;7.25;4.90;;;;;;;24.03;55.13;94408.19;5024316;28;20236;-75
2023/08/29 04:21:32;;;;;;;8.27;4.75;;;;;;;23.91;54.82;94403.31;5033459;28;20225;-74
2023/08/29 04:23:59;;;;;;;8.07;4.60;;;;;;;23.93;54.88;94403.06;5018731;28;20367;-76
2023/08/29 04:26:25;;;;;;;9.52;4.80;;;;;;;23.81;55.41;94402.72;5018667;28;20623;-75
2023/08/29 04:28:50;;;;;;;7.75;4.45;;;;;;;24.01;55.10;94395.13;5029120;28;20233;-75
2023/08/29 04:31:19;;;;;;;10.60;6.20;;;;;;;24.00;55.28;94390.09;5033001;28;20239;-75
2023/08/29 04:33:45;;;;;;;10.13;4.75;;;;;;;24.00;55.28;94392.75;5032474;28;20237;-73
2023/08/29 04:36:10;;;;;;;10.80;5.53;;;;;;;24.01;55.16;94391.66;5018976;28;20706;-74
2023/08/29 04:38:36;;;;;;;11.90;6.10;;;;;;;24.01;55.00;94395.13;5040514;28;20229;-76
2023/08/29 04:41:01;;;;;;;8.82;5.43;;;;;;;24.07;55.04;94393.19;5042690;28;20224;-74
2023/08/29 04:43:27;;;;;;;11.75;5.03;;;;;;;24.15;54.82;94389.00;5028908;28;20253;-75
2023/08/29 04:45:53;;;;;;;10.80;5.30;;;;;;;24.13;55.04;94396.53;5021708;28;20839;-74
2023/08/29 04:48:18;;;;;;;7.75;4.70;;;;;;;24.14;54.81;94406.97;5042510;28;20624;-74
2023/08/29 04:50:47;;;;;;;6.63;4.45;;;;;;;24.09;54.96;94399.84;5027463;28;20237;-75
2023/08/29 04:53:12;;;;;;;8.93;4.30;;;;;;;24.17;54.76;94400.22;5021378;28;20229;-74
2023/08/29 04:55:38;;;;;;;10.93;4.70;;;;;;;24.03;55.41;94398.28;5031371;28;20252;-74
2023/08/29 04:58:03;;;;;;;9.52;4.60;;;;;;;24.24;54.15;94400.63;5026370;28;20228;-75
2023/08/29 05:00:29;;;;;;;6.07;4.20;;;;;;;24.33;54.21;94404.19;5025652;28;20229;-75
2023/08/29 05:02:55;;;;;;;6.85;4.35;;;;;;;24.38;54.15;94394.19;5041516;28;20224;-76
2023/08/29 05:05:20;;;;;;;8.02;4.90;;;;;;;24.33;54.36;94385.47;5012143;28;20986;-74
2023/08/29 05:07:46;;;;;;;9.73;4.57;;;;;;;24.55;53.67;94378.28;5020912;28;20232;-76
2023/08/29 05:10:11;;;;;;;7.00;4.40;;;;;;;24.41;53.41;94376.75;5049840;28;20307;-75
2023/08/29 05:12:37;;;;;;;9.30;4.60;;;;;;;24.69;52.96;94379.06;5037213;28;20226;-74
2023/08/29 05:15:03;;;;;;;10.48;4.43;;;;;;;25.08;51.65;94380.38;5035649;28;20382;-73
2023/08/29 05:17:29;;;;;;;8.07;4.45;;;;;;;24.85;52.05;94382.25;5037419;28;20224;-75
2023/08/29 05:19:54;;;;;;;6.88;4.30;;;;;;;25.65;50.36;94389.53;5044968;28;20829;-74
2023/08/29 05:22:20;;;;;;;10.35;4.35;;;;;;;25.22;51.01;94389.97;5017482;28;20832;-75
2023/08/29 05:24:45;;;;;;;9.43;4.47;;;;;;;24.93;51.63;94384.22;5027817;28;20225;-74
2023/08/29 05:27:11;;;;;;;8.35;4.32;;;;;;;24.88;52.44;94376.31;5033632;28;20724;-75
2023/08/29 05:29:37;;;;;;;10.65;4.97;;;;;;;24.96;52.08;94378.25;5049516;28;20230;-76
2023/08/29 05:32:02;;;;;;;6.15;4.32;;;;;;;24.93;52.66;94378.88;5035928;28;20311;-75
2023/08/29 05:34:28;;;;;;;11.52;4.80;;;;;;;24.73;52.66;94380.06;5014409;28;20244;-74
2023/08/29 05:36:53;;;;;;;8.40;4.60;;;;;;;24.83;52.57;94379.09;5042047;28;20225;-74
2023/08/29 05:39:19;;;;;;;8.70;4.38;;;;;;;24.81;51.99;94375.94;5033803;28;20312;-75
2023/08/29 05:41:46;;;;;;;8.82;4.40;;;;;;;24.91;51.75;94383.72;5018703;28;20230;-73
2023/08/29 05:44:13;;;;;;;6.25;4.03;;;;;;;24.93;51.26;94394.13;5028270;28;20678;-74
2023/08/29 05:46:38;;;;;;;8.13;4.18;;;;;;;24.85;51.43;94392.97;5021180;28;20230;-74
2023/08/29 05:49:04;;;;;;;5.38;4.00;;;;;;;24.86;52.23;94383.84;5021070;28;20264;-74
2023/08/29 05:51:29;;;;;;;8.05;4.50;;;;;;;24.87;51.75;94385.41;5027313;28;20249;-74
2023/08/29 05:53:55;;;;;;;10.13;4.80;;;;;;;24.80;52.21;94381.56;5003489;28;20220;-75
2023/08/29 05:56:20;;;;;;;7.15;4.30;;;;;;;24.78;52.23;94384.56;5020686;28;20225;-74
2023/08/29 05:58:46;;;;;;;7.63;4.35;;;;;;;24.93;51.66;94378.06;5010160;28;20380;-74
2023/08/29 06:01:12;;;;;;;7.68;4.13;;;;;;;25.01;51.58;94370.09;5020255;28;20226;-73
2023/08/29 06:03:37;;;;;;;10.32;4.90;;;;;;;25.08;51.83;94375.84;5050298;28;20632;-74
2023/08/29 06:06:03;;;;;;;7.75;4.40;;;;;;;25.04;52.10;94366.03;5018559;28;20224;-75
2023/08/29 06:08:33;;;;;;;14.65;5.20;;;;;;;24.94;52.78;94371.59;5035819;28;21019;-75
2023/08/29 06:11:03;;;;;;;16.20;4.63;;;;;;;25.05;52.87;94384.50;5030924;28;20220;-75
2023/08/29 06:13:29;;;;;;;14.40;4.78;;;;;;;25.16;52.41;94388.50;5013065;28;20228;-74
2023/08/29 06:15:55;;;;;;;12.27;5.20;;;;;;;25.14;52.41;94389.91;5038874;28;20262;-75
2023/08/29 06:18:21;;;;;;;10.48;5.25;;;;;;;25.30;52.52;94383.88;5018529;28;20305;-74
2023/08/29 06:20:46;;;;;;;13.77;5.90;;;;;;;25.34;53.13;94389.41;5014805;28;20576;-75
2023/08/29 06:23:13;;;;;;;19.52;6.63;;;;;;;25.28;53.33;94393.31;5013826;28;20616;-75
2023/08/29 06:25:38;;;;;;;14.00;6.82;;;;;;;25.23;53.47;94380.03;5033663;28;20233;-74
2023/08/29 06:28:05;;;;;;;11.02;6.22;;;;;;;25.05;53.11;94381.81;5011411;28;20282;-75
2023/08/29 06:30:30;;;;;;;18.45;6.28;;;;;;;25.14;53.34;94382.66;5021273;28;20321;-74
2023/08/29 06:32:56;;;;;;;19.95;6.72;;;;;;;25.13;54.03;94385.63;5027054;28;20702;-75
2023/08/29 06:35:21;;;;;;;10.02;5.80;;;;;;;25.01;54.35;94388.84;5045977;28;20224;-73
2023/08/29 06:37:47;;;;;;;13.18;5.93;;;;;;;25.13;52.77;94386.44;5038876;28;20236;-75
2023/08/29 06:40:12;;;;;;;12.85;5.47;;;;;;;25.18;53.15;94383.63;5047851;28;20220;-74
2023/08/29 06:42:38;;;;;;;12.90;5.38;;;;;;;25.22;52.86;94387.28;5054263;28;20741;-74
2023/08/29 06:45:05;;;;;;;10.88;5.25;;;;;;;25.30;53.23;94385.78;5037263;28;20236;-75
2023/08/29 06:47:32;;;;;;;11.27;5.90;;;;;;;25.48;51.76;94376.81;5031343;28;20220;-74
2023/08/29 06:49:57;;;;;;;13.20;5.85;;;;;;;25.51;51.63;94386.91;5011507;28;20302;-74
2023/08/29 06:52:23;;;;;;;9.20;5.40;;;;;;;25.48;51.60;94392.88;5035454;28;20279;-74
2023/08/29 06:54:48;;;;;;;12.02;5.65;;;;;;;25.44;51.51;94373.13;5026993;28;20228;-74
2023/08/29 06:57:13;;;;;;;11.23;4.97;;;;;;;25.49;51.59;94370.34;5042195;28;20936;-75
2023/08/29 06:59:39;;;;;;;12.13;5.13;;;;;;;25.55;51.32;94371.00;5019643;28;20233;-74
2023/08/29 07:02:05;;;;;;;10.70;5.10;;;;;;;25.56;51.52;94367.22;5036115;28;20320;-75
2023/08/29 07:04:30;;;;;;;7.15;4.65;;;;;;;25.67;50.15;94371.25;5016893;28;20258;-74
2023/08/29 07:06:56;;;;;;;7.70;4.78;;;;;;;25.85;49.96;94365.66;5019687;28;20241;-74
2023/08/29 07:09:21;;;;;;;8.15;4.45;;;;;;;25.88;49.44;94372.31;5019546;28;20230;-74
2023/08/29 07:11:47;;;;;;;6.38;4.53;;;;;;;26.01;49.46;94366.84;5024913;28;20762;-75
2023/08/29 07:14:12;;;;;;;6.97;4.40;;;;;;;26.01;49.36;94366.03;5028014;28;20248;-74
2023/08/29 07:16:38;;;;;;;12.02;5.20;;;;;;;26.03;49.61;94372.69;5042054;28;20618;-75
2023/08/29 07:19:05;;;;;;;9.38;4.80;;;;;;;26.09;49.51;94381.38;5043941;28;20220;-73
2023/08/29 07:21:30;;;;;;;9.30;5.00;;;;;;;26.14;49.03;94380.50;5046053;28;20734;-75
2023/08/29 07:23:56;;;;;;;9.00;4.85;;;;;;;26.29;48.62;94378.19;5048176;28;20242;-74
2023/08/29 07:26:21;;;;;;;9.50;4.90;;;;;;;26.36;48.43;94380.41;5044075;28;20230;-74
2023/08/29 07:28:47;;;;;;;12.20;5.18;;;;;;;26.31;48.54;94380.56;5046023;28;20755;-75
2023/08/29 07:31:12;;;;;;;11.30;4.80;;;;;;;26.33;48.29;94389.88;5045602;28;20707;-74
2023/08/29 07:33:38;;;;;;;10.35;4.80;;;;;;;26.37;47.60;94380.09;5025620;28;20233;-74
2023/08/29 07:36:04;;;;;;;9.98;5.10;;;;;;;26.39;47.85;94383.25;5018379;28;20218;-75
2023/08/29 07:38:29;;;;;;;9.95;5.03;;;;;;;26.41;48.12;94369.56;5029682;28;20703;-73
2023/08/29 07:40:56;;;;;;;8.38;4.97;;;;;;;26.53;47.70;94378.56;5009614;28;20272;-74
2023/08/29 07:43:22;;;;;;;9.10;5.10;;;;;;;26.70;48.12;94375.91;5019349;28;20233;-74
2023/08/29 07:45:52;;;;;;;9.43;5.10;;;;;;;26.73;46.60;94380.66;5023144;28;20276;-74
2023/08/29 07:48:18;;;;;;;8.35;4.78;;;;;;;26.74;46.73;94378.78;5032048;28;20238;-74
2023/08/29 07:50:44;;;;;;;10.25;5.07;;;;;;;26.70;47.21;94377.84;5018388;28;20249;-73
2023/08/29 07:53:09;;;;;;;9.65;5.22;;;;;;;26.85;46.44;94372.03;5016581;28;20755;-73
2023/08/29 07:55:35;;;;;;;9.18;5.10;;;;;;;26.95;46.71;94374.41;5042035;28;20280;-72
2023/08/29 07:58:01;;;;;;;9.20;5.07;;;;;;;27.17;45.91;94376.16;5036900;28;21401;-75
2023/08/29 08:00:28;;;;;;;10.25;5.60;;;;;;;27.38;46.06;94371.75;5009044;28;20727;-74
2023/08/29 08:02:53;;;;;;;8.25;5.40;;;;;;;27.55;45.27;94370.94;5029508;28;20225;-74
2023/08/29 08:05:19;;;;;;;10.13;5.00;;;;;;;27.53;45.50;94367.78;5031529;28;20225;-74
2023/08/29 08:07:44;;;;;;;9.88;5.00;;;;;;;27.43;44.91;94363.53;5011582;28;20235;-75
2023/08/29 08:10:11;;;;;;;11.00;4.90;;;;;;;27.55;45.45;94374.44;5018464;28;20227;-74
2023/08/29 08:12:40;;;;;;;9.25;5.15;;;;;;;27.53;45.27;94362.41;5011448;28;20236;-75
2023/08/29 08:15:06;;;;;;;9.50;5.00;;;;;;;27.69;44.51;94356.22;5033701;28;20626;-75
2023/08/29 08:17:32;;;;;;;11.13;4.80;;;;;;;27.76;45.15;94361.88;5011993;28;20234;-74
2023/08/29 08:19:58;;;;;;;10.65;5.18;;;;;;;27.86;44.94;94366.13;5024240;28;20229;-74
2023/08/29 08:22:23;;;;;;;11.65;5.28;;;;;;;27.88;43.83;94358.53;5049101;28;20315;-74
2023/08/29 08:24:49;;;;;;;12.65;5.97;;;;;;;27.87;44.19;94351.59;5030213;28;20240;-73
2023/08/29 08:27:14;;;;;;;9.45;5.03;;;;;;;27.83;44.88;94347.94;5027067;28;20831;-73
2023/08/29 08:29:40;;;;;;;7.35;5.00;;;;;;;27.91;45.84;94344.44;5040842;28;20240;-74
2023/08/29 08:32:05;;;;;;;10.23;5.10;;;;;;;27.76;44.37;94337.69;5033649;28;20633;-74
2023/08/29 08:34:31;;;;;;;9.90;5.38;;;;;;;27.75;44.88;94336.09;5028419;28;20229;-74
2023/08/29 08:36:56;;;;;;;10.30;5.20;;;;;;;27.76;44.00;94337.69;5020508;28;20233;-73
2023/08/29 08:39:22;;;;;;;11.95;5.20;;;;;;;27.81;44.46;94329.44;5021157;28;20254;-73
2023/08/29 08:41:47;;;;;;;7.63;5.00;;;;;;;28.03;43.91;94329.25;5017574;28;20311;-74
2023/08/29 08:44:15;;;;;;;9.15;4.50;;;;;;;28.28;42.93;94326.75;5010403;28;20239;-75
2023/08/29 08:46:42;;;;;;;11.50;4.90;;;;;;;28.38;42.62;94332.56;5028312;28;20228;-74
2023/08/29 08:49:07;;;;;;;9.13;5.10;;;;;;;28.50;42.46;94331.84;5027315;28;20229;-74
2023/08/29 08:51:33;;;;;;;12.60;5.10;;;;;;;28.65;42.86;94318.66;5017929;28;20233;-76
2023/08/29 08:53:58;;;;;;;7.85;4.93;;;;;;;28.60;43.36;94324.22;5015294;28;20233;-77
2023/08/29 08:56:24;;;;;;;13.30;5.28;;;;;;;28.78;42.41;94332.97;5017926;28;20251;-74
2023/08/29 08:58:49;;;;;;;13.82;5.50;;;;;;;28.90;42.29;94329.56;5028191;28;21082;-75
2023/08/29 09:01:15;;;;;;;11.30;5.15;;;;;;;28.87;42.04;94330.22;5031128;28;20286;-75
2023/08/29 09:03:45;;;;;;;8.88;5.20;;;;;;;28.78;41.95;94332.19;5015172;28;20837;-76
2023/08/29 09:06:10;;;;;;;9.48;5.03;;;;;;;28.77;42.39;94326.00;5020467;28;20232;-75
2023/08/29 09:08:37;;;;;;;8.82;5.28;;;;;;;28.72;42.70;94331.59;5048710;28;20235;-75
2023/08/29 09:11:03;;;;;;;7.40;4.97;;;;;;;28.57;42.52;94338.31;5054220;28;20229;-74
2023/08/29 09:13:29;;;;;;;10.43;5.05;;;;;;;28.47;42.82;94327.09;5017495;28;20233;-74
2023/08/29 09:15:57;;;;;;;12.13;5.40;;;;;;;28.52;42.70;94335.00;5032539;28;20278;-74
2023/08/29 09:18:27;;;;;;;8.98;5.57;;;;;;;28.51;42.87;94323.47;5043023;28;20726;-75
2023/08/29 09:20:53;;;;;;;9.32;5.60;;;;;;;28.57;43.10;94321.34;5016452;28;20286;-76
2023/08/29 09:23:20;;;;;;;11.10;5.25;;;;;;;28.62;42.94;94313.09;5047875;28;20320;-75
2023/08/29 09:25:52;;;;;;;11.82;5.70;;;;;;;28.61;42.52;94319.63;5030427;28;20218;-75
2023/08/29 09:28:18;;;;;;;8.32;5.35;;;;;;;28.53;43.06;94315.03;5012582;28;20334;-76
2023/08/29 09:30:44;;;;;;;9.02;5.50;;;;;;;28.43;42.55;94310.81;5025984;28;20316;-75
2023/08/29 09:33:10;;;;;;;9.23;5.30;;;;;;;28.37;42.54;94309.44;5022718;28;20320;-75
2023/08/29 09:35:35;;;;;;;9.65;5.35;;;;;;;28.31;43.41;94305.34;5012431;28;20633;-75
2023/08/29 09:38:01;;;;;;;12.32;5.20;;;;;;;28.25;44.33;94308.56;5035585;28;20229;-75
2023/08/29 09:40:26;;;;;;;9.95;5.00;;;;;;;28.32;43.21;94315.00;5020601;28;20226;-75
2023/08/29 09:43:01;;;;;;;10.45;5.18;;;;;;;28.41;43.67;94317.66;5034405;28;20260;-76
2023/08/29 09:45:30;;;;;;;9.27;5.55;;;;;;;28.41;43.48;94314.97;5031552;28;20615;-76
2023/08/29 09:48:00;;;;;;;11.95;5.35;;;;;;;28.40;43.48;94311.47;5020313;28;20308;-75
2023/08/29 09:50:26;;;;;;;6.90;5.45;;;;;;;28.27;44.09;94312.50;5015202;28;20264;-75
2023/08/29 09:52:52;;;;;;;9.43;5.20;;;;;;;28.40;43.36;94311.47;5002413;28;20242;-76
2023/08/29 09:55:19;;;;;;;9.20;5.13;;;;;;;28.44;43.66;94308.94;5027686;28;21035;-76
2023/08/29 09:57:45;;;;;;;11.48;5.20;;;;;;;28.46;43.47;94306.69;5038231;28;20273;-75
2023/08/29 10:00:13;;;;;;;10.50;5.43;;;;;;;28.50;43.44;94310.31;5030392;28;20295;-75
2023/08/29 10:02:40;;;;;;;9.75;5.18;;;;;;;28.45;43.78;94305.91;5021362;28;20224;-75
2023/08/29 10:05:09;;;;;;;8.65;5.78;;;;;;;28.38;43.04;94312.91;5006575;28;20229;-75
2023/08/29 10:07:42;;;;;;;9.63;5.78;;;;;;;28.42;43.60;94311.16;5029875;28;20225;-75
2023/08/29 10:10:08;;;;;;;10.70;5.78;;;;;;;28.45;44.30;94305.91;5015523;28;20240;-76
2023/08/29 10:12:34;;;;;;;9.25;5.70;;;;;;;28.42;43.92;94293.06;5045898;28;20212;-75
2023/08/29 10:15:00;;;;;;;8.85;5.40;;;;;;;28.51;43.23;94298.44;5018772;28;20684;-75
2023/08/29 10:17:26;;;;;;;8.77;5.63;;;;;;;28.55;43.94;94292.06;5031309;28;20231;-75
2023/08/29 10:19:51;;;;;;;8.82;5.50;;;;;;;28.59;43.61;94295.69;5034802;28;21036;-76
2023/08/29 10:22:17;;;;;;;10.07;5.65;;;;;;;28.62;44.25;94284.28;5051535;28;20221;-74
2023/08/29 10:24:44;;;;;;;7.53;5.50;;;;;;;28.62;43.99;94296.94;5016070;28;20286;-75
2023/08/29 10:27:10;;;;;;;11.15;5.47;;;;;;;28.65;44.00;94290.91;5037685;28;20311;-76
2023/08/29 10:29:37;;;;;;;12.38;5.70;;;;;;;28.68;43.67;94285.63;5018618;28;20240;-74
2023/08/29 10:32:03;;;;;;;13.68;6.30;;;;;;;28.71;44.83;94284.19;5019563;28;20225;-74
2023/08/29 10:34:29;;;;;;;8.40;5.65;;;;;;;28.78;43.21;94284.47;5032117;28;20628;-75
2023/08/29 10:36:55;;;;;;;13.30;5.70;;;;;;;28.79;44.04;94287.94;5010985;28;20229;-75
2023/08/29 10:39:21;;;;;;;7.70;5.47;;;;;;;28.81;43.86;94283.81;5026945;28;20253;-76
2023/08/29 10:41:47;;;;;;;12.07;6.60;;;;;;;28.86;44.85;94274.75;5012492;28;20222;-75
2023/08/29 10:44:43;;;;;;;8.75;5.60;;;;;;;28.82;44.56;94274.63;5013526;28;20226;-75
2023/08/29 10:47:23;;;;;;;10.18;5.90;;;;;;;28.81;44.16;94262.25;5026248;28;20236;-75
2023/08/29 10:49:58;;;;;;;27.77;7.00;;;;;;;28.74;43.89;94259.31;5046034;28;20258;-75
2023/08/29 10:52:32;;;;;;;11.48;5.45;;;;;;;28.73;44.50;94265.03;5018933;28;20228;-76
2023/08/29 10:55:08;;;;;;;8.45;5.60;;;;;;;28.67;44.82;94272.50;5013731;28;20235;-74
2023/08/29 10:57:34;;;;;;;8.32;5.60;;;;;;;28.65;44.40;94280.94;5015756;28;20214;-76
2023/08/29 11:00:00;;;;;;;7.95;5.63;;;;;;;28.68;44.23;94276.78;5018079;28;20726;-76
2023/08/29 11:02:27;;;;;;;7.55;5.22;;;;;;;28.55;44.41;94277.78;5013825;28;20404;-75
2023/08/29 11:05:04;;;;;;;12.48;5.45;;;;;;;28.58;44.41;94269.88;5023396;28;20836;-77
2023/08/29 11:07:30;;;;;;;10.23;6.60;;;;;;;28.56;44.60;94271.31;5046407;28;20233;-76
2023/08/29 11:10:18;;;;;;;11.75;5.70;;;;;;;28.50;44.47;94267.22;5032410;28;20631;-75
2023/08/29 11:13:03;;;;;;;9.45;5.47;;;;;;;28.55;44.66;94257.03;5047614;28;20224;-76
2023/08/29 11:15:46;;;;;;;10.73;5.30;;;;;;;28.50;44.87;94249.16;5045349;28;20680;-75
2023/08/29 11:18:24;;;;;;;10.25;5.47;;;;;;;28.49;44.84;94246.81;5048495;28;20228;-75
2023/08/29 11:20:50;;;;;;;12.07;5.85;;;;;;;28.40;45.05;94249.53;5046037;28;20285;-76
2023/08/29 11:23:16;;;;;;;9.75;5.35;;;;;;;28.39;44.89;94247.97;5026646;28;20316;-76
2023/08/29 11:25:42;;;;;;;9.93;5.50;;;;;;;28.35;44.69;94255.09;5030442;28;20316;-73
2023/08/29 11:28:07;;;;;;;10.35;5.55;;;;;;;28.40;45.30;94252.22;5028285;28;20225;-76